Ituacu, Brazil
Current Conditions -  °F | °C
As of 7:00 PM on Friday 19 Dec 2014 (Local Time) from SBQV Reporting Station
Thunderstorm Thunderstorm  
Wind Chill: 73°   Ceiling: Unl
Heat Index: 73°   Visibility: 6mi
Dew Point: 70°   Wind: 5mph
Humidity: 88%   Direction: 80°E
Pressure: 30"   Gusts: NA
Location:  13.81°S, 41.3°W
Report Text: SBQV 192200Z 08004KT 9999 VCTS FEW015CB SCT070 23/21 Q1016
Loading
Personal Weather Stations






























Interactive Weather Map New forecast layout! Learn more

10-Day Weather Forecast

Advertisements
Track Severe Weather on mobile